Time;durP1;ratioP1;P1;durP2;ratioP2;P2;SDS_P1;SDS_P2;PMS_P1;PMS_P2;Temp;Humidity;BMP_temperature;BMP_pressure;BME280_temperature;BME280_humidity;BME280_pressure;Samples;Min_cycle;Max_cycle;Signal;HPM_P1;HPM_P2
2022/11/21 00:01:24;;;;;;;1.40;0.47;;;2.30;99.90;;;;;;5001263;28;19921;-90
2022/11/21 00:03:50;;;;;;;0.95;0.70;;;1.60;99.90;;;;;;5000761;28;20060;-90
2022/11/21 00:06:17;;;;;;;0.80;0.60;;;0.90;99.90;;;;;;5000156;28;20128;-92
2022/11/21 00:08:43;;;;;;;2.80;0.80;;;1.70;99.90;;;;;;5016163;28;20072;-90
2022/11/21 00:11:09;;;;;;;2.00;1.15;;;0.30;99.90;;;;;;5017029;28;20050;-90
2022/11/21 00:13:34;;;;;;;1.40;1.30;;;1.10;99.90;;;;;;5016640;28;20095;-89
2022/11/21 00:16:12;;;;;;;3.33;0.90;;;1.50;99.90;;;;;;5000509;28;20506;-89
2022/11/21 00:18:41;;;;;;;2.30;1.17;;;0.80;99.90;;;;;;5016060;28;20064;-89
2022/11/21 00:21:12;;;;;;;1.40;0.68;;;0.20;99.90;;;;;;5035050;28;20053;-90
2022/11/21 00:23:38;;;;;;;2.70;1.40;;;0.30;99.90;;;;;;5036345;28;20048;-90
2022/11/21 00:26:09;;;;;;;3.33;2.00;;;1.50;99.90;;;;;;5033909;28;20167;-90
2022/11/21 00:28:35;;;;;;;1.77;1.00;;;2.10;99.90;;;;;;5019107;28;20052;-90
2022/11/21 00:31:07;;;;;;;2.40;0.68;;;2.00;99.90;;;;;;5023516;28;20052;-90
2022/11/21 00:33:37;;;;;;;3.75;1.23;;;2.10;99.90;;;;;;5056107;28;20045;-90
2022/11/21 00:36:07;;;;;;;5.18;1.35;;;0.90;99.90;;;;;;5020126;28;20399;-89
2022/11/21 00:38:33;;;;;;;2.88;1.02;;;0.90;99.90;;;;;;5028581;28;20075;-89
2022/11/21 00:40:59;;;;;;;0.90;0.70;;;2.00;99.90;;;;;;5056224;28;20052;-89
2022/11/21 00:43:25;;;;;;;1.40;0.97;;;2.00;99.90;;;;;;5055385;28;20499;-91
2022/11/21 00:45:50;;;;;;;1.03;0.57;;;0.80;99.90;;;;;;5039587;28;20048;-90
2022/11/21 00:48:16;;;;;;;0.73;0.73;;;0.70;99.90;;;;;;5022670;28;20049;-90
2022/11/21 00:50:42;;;;;;;2.67;1.63;;;2.10;99.90;;;;;;5038755;28;20047;-90
2022/11/21 00:53:08;;;;;;;0.63;0.63;;;1.40;99.90;;;;;;5055958;28;20041;-90
2022/11/21 00:55:36;;;;;;;1.83;0.67;;;0.80;99.90;;;;;;5021065;28;20546;-90
2022/11/21 00:58:02;;;;;;;3.35;1.15;;;0.70;99.90;;;;;;5019057;28;20044;-90
2022/11/21 01:00:28;;;;;;;2.83;0.95;;;1.90;99.90;;;;;;5037079;28;20558;-90
2022/11/21 01:02:55;;;;;;;1.43;0.93;;;0.60;99.90;;;;;;5044364;28;20120;-90
2022/11/21 01:05:24;;;;;;;2.67;0.70;;;1.60;99.90;;;;;;5038952;28;20119;-89
2022/11/21 01:07:49;;;;;;;1.33;0.88;;;1.90;99.90;;;;;;5033539;28;20051;-89
2022/11/21 01:10:18;;;;;;;4.87;1.20;;;1.80;99.90;;;;;;5038785;28;20044;-89
2022/11/21 01:12:44;;;;;;;2.67;1.13;;;0.50;99.90;;;;;;5054818;28;20278;-90
2022/11/21 01:15:13;;;;;;;2.20;1.27;;;1.70;99.90;;;;;;5055248;28;20498;-90
2022/11/21 01:17:41;;;;;;;1.52;1.40;;;1.70;99.90;;;;;;5055140;28;20040;-90
2022/11/21 01:20:08;;;;;;;2.43;0.70;;;0.40;99.90;;;;;;5054553;28;20048;-88
2022/11/21 01:22:38;;;;;;;2.28;1.30;;;0.40;99.90;;;;;;5037283;28;20106;-90
2022/11/21 01:25:04;;;;;;;1.63;1.00;;;0.30;99.90;;;;;;5018392;28;20045;-89
2022/11/21 01:27:30;;;;;;;3.00;1.00;;;0.40;99.90;;;;;;5018424;28;20041;-89
2022/11/21 01:30:00;;;;;;;1.90;0.73;;;1.40;99.90;;;;;;5036251;28;20083;-89
2022/11/21 01:32:26;;;;;;;1.20;1.10;;;0.30;99.90;;;;;;5038767;28;20079;-94
2022/11/21 01:34:55;;;;;;;4.17;1.30;;;0.30;99.90;;;;;;5029504;28;20033;-89
2022/11/21 01:37:24;;;;;;;1.60;0.75;;;0.50;99.90;;;;;;5002655;28;20041;-89
2022/11/21 01:39:56;;;;;;;1.20;0.60;;;0.20;99.90;;;;;;5018152;28;20048;-89
2022/11/21 01:42:25;;;;;;;2.78;0.95;;;-0.20;99.90;;;;;;5018453;28;20041;-89
2022/11/21 01:44:53;;;;;;;0.65;0.50;;;1.50;99.90;;;;;;5026190;28;20491;-89
2022/11/21 01:47:21;;;;;;;1.10;1.00;;;0.00;99.90;;;;;;5034228;28;20099;-90
2022/11/21 01:49:50;;;;;;;1.45;1.13;;;0.40;99.90;;;;;;5042322;28;20098;-90
2022/11/21 01:52:28;;;;;;;3.50;0.85;;;0.00;99.90;;;;;;5035405;28;20084;-89
2022/11/21 01:55:01;;;;;;;1.88;1.48;;;-1.10;99.90;;;;;;5040232;28;20484;-89
2022/11/21 01:58:05;;;;;;;3.50;1.15;;;-0.10;99.90;;;;;;5054737;28;20052;-89
2022/11/21 02:00:38;;;;;;;1.27;1.10;;;-0.10;99.90;;;;;;4971668;28;20055;-94
2022/11/21 02:03:09;;;;;;;0.60;0.60;;;0.30;99.90;;;;;;5058141;28;20135;-89
2022/11/21 02:05:37;;;;;;;0.98;0.68;;;-0.30;99.90;;;;;;5054843;28;20041;-90
2022/11/21 02:08:08;;;;;;;0.68;0.68;;;0.40;99.90;;;;;;5038250;28;20041;-89
2022/11/21 02:10:37;;;;;;;1.75;1.20;;;-0.80;99.90;;;;;;5039514;28;20050;-92
2022/11/21 02:13:05;;;;;;;2.33;1.88;;;0.90;99.90;;;;;;5042115;28;20083;-89
2022/11/21 02:15:31;;;;;;;1.58;0.50;;;-0.40;99.90;;;;;;5042253;28;20055;-89
2022/11/21 02:17:56;;;;;;;3.87;0.67;;;0.70;99.90;;;;;;5038437;28;20041;-89
2022/11/21 02:20:24;;;;;;;1.03;0.90;;;0.50;99.90;;;;;;5023186;28;20063;-90
2022/11/21 02:22:58;;;;;;;1.38;0.73;;;0.80;99.90;;;;;;5028899;28;20049;-89
2022/11/21 02:25:36;;;;;;;0.95;0.95;;;-1.40;99.90;;;;;;5038684;28;20549;-89
2022/11/21 02:28:05;;;;;;;2.20;0.85;;;-0.60;99.90;;;;;;5022372;28;20122;-89
2022/11/21 02:30:40;;;;;;;2.03;0.80;;;0.20;99.90;;;;;;5038696;28;20059;-90
2022/11/21 02:33:10;;;;;;;2.03;0.80;;;0.40;99.90;;;;;;5046240;28;20044;-89
2022/11/21 02:35:35;;;;;;;3.15;0.80;;;0.60;99.90;;;;;;5041874;28;20056;-93
2022/11/21 02:38:16;;;;;;;1.00;0.57;;;0.00;99.90;;;;;;5019275;28;20098;-89
2022/11/21 02:40:49;;;;;;;1.52;1.23;;;-0.70;99.90;;;;;;5040495;28;20147;-89
2022/11/21 02:43:49;;;;;;;2.15;1.10;;;-0.60;99.90;;;;;;5057506;28;20047;-88
2022/11/21 02:46:15;;;;;;;1.10;1.00;;;-0.80;99.90;;;;;;5047121;28;20088;-88
2022/11/21 02:48:41;;;;;;;3.40;1.33;;;0.30;99.90;;;;;;5024421;28;20517;-88
2022/11/21 02:51:06;;;;;;;1.43;1.00;;;0.20;99.90;;;;;;5057713;28;20048;-88
2022/11/21 02:53:32;;;;;;;1.73;1.20;;;-0.90;99.90;;;;;;5057786;28;20131;-88
2022/11/21 02:55:58;;;;;;;2.00;0.73;;;0.30;99.90;;;;;;5040651;28;20233;-88
2022/11/21 02:58:23;;;;;;;2.10;0.90;;;0.20;99.90;;;;;;5040767;28;20055;-88
2022/11/21 03:00:49;;;;;;;4.53;0.93;;;-1.00;99.90;;;;;;5057206;28;20049;-88
2022/11/21 03:03:15;;;;;;;0.97;0.60;;;-1.00;99.90;;;;;;5057120;28;20479;-89
2022/11/21 03:05:41;;;;;;;1.23;1.00;;;-1.00;99.90;;;;;;5040179;28;20045;-85
2022/11/21 03:08:07;;;;;;;3.00;1.53;;;-0.70;99.90;;;;;;5040898;28;20059;-89
2022/11/21 03:10:33;;;;;;;3.42;1.50;;;-1.10;99.90;;;;;;5040717;28;20044;-89
2022/11/21 03:13:01;;;;;;;0.60;0.60;;;-1.10;99.90;;;;;;5040234;28;20506;-88
2022/11/21 03:15:29;;;;;;;0.25;0.25;;;-0.90;99.90;;;;;;5057182;28;20051;-89
2022/11/21 03:17:56;;;;;;;0.55;0.55;;;-1.10;99.90;;;;;;5056529;28;20048;-89
2022/11/21 03:20:21;;;;;;;3.20;0.97;;;-1.10;99.90;;;;;;5056975;28;20489;-88
2022/11/21 03:22:47;;;;;;;1.13;0.77;;;-1.10;99.90;;;;;;5054929;28;20071;-88
2022/11/21 03:25:13;;;;;;;1.07;1.07;;;-1.20;99.90;;;;;;5057036;28;20080;-89
2022/11/21 03:27:38;;;;;;;0.87;0.70;;;-1.20;99.90;;;;;;5039976;28;20044;-88
2022/11/21 03:30:04;;;;;;;1.47;0.87;;;-1.20;99.90;;;;;;5056030;28;20689;-89
2022/11/21 03:32:30;;;;;;;1.50;0.52;;;-1.20;99.90;;;;;;5073382;28;20555;-89
2022/11/21 03:34:56;;;;;;;0.67;0.57;;;-0.20;99.90;;;;;;5022873;28;20136;-88
2022/11/21 03:37:21;;;;;;;0.63;0.33;;;-1.20;99.90;;;;;;5056871;28;20094;-88
2022/11/21 03:39:47;;;;;;;3.07;1.33;;;-1.20;99.90;;;;;;5056236;28;20376;-87
2022/11/21 03:42:13;;;;;;;1.00;0.97;;;-0.40;99.90;;;;;;5039700;28;20485;-88
2022/11/21 03:44:38;;;;;;;0.37;0.27;;;-1.30;99.90;;;;;;5056783;28;20049;-89
2022/11/21 03:47:04;;;;;;;1.27;1.07;;;-0.80;99.90;;;;;;5039699;28;20036;-87
2022/11/21 03:49:30;;;;;;;1.93;0.77;;;-0.50;99.90;;;;;;5056694;28;20050;-88
2022/11/21 03:51:55;;;;;;;0.43;0.43;;;-0.40;99.90;;;;;;5055535;28;20083;-89
2022/11/21 03:54:21;;;;;;;2.17;0.97;;;-1.40;99.90;;;;;;5056485;28;20052;-88
2022/11/21 03:56:47;;;;;;;1.80;1.03;;;-1.40;99.90;;;;;;5039605;28;20499;-84
2022/11/21 03:59:12;;;;;;;0.90;0.87;;;-0.20;99.90;;;;;;5056191;28;20044;-88
2022/11/21 04:01:38;;;;;;;0.27;0.23;;;-1.40;99.90;;;;;;5055712;28;20045;-88
2022/11/21 04:04:04;;;;;;;5.03;1.33;;;-1.20;99.90;;;;;;5039334;28;20135;-88
2022/11/21 04:06:30;;;;;;;1.65;0.82;;;-1.40;99.90;;;;;;5056062;28;20052;-89
2022/11/21 04:08:56;;;;;;;2.83;1.90;;;-1.00;99.90;;;;;;5039160;28;20115;-89
2022/11/21 04:11:23;;;;;;;1.10;1.10;;;-1.40;99.90;;;;;;5039611;28;20079;-88
2022/11/21 04:13:49;;;;;;;;;;;-1.20;99.90;;;;;;5039728;28;20056;-85
2022/11/21 04:16:15;;;;;;;0.95;0.90;;;-1.50;99.90;;;;;;5055945;28;19921;-88
2022/11/21 04:18:41;;;;;;;0.90;0.60;;;-1.50;99.90;;;;;;5055602;28;20136;-89
2022/11/21 04:21:07;;;;;;;0.85;0.65;;;-1.50;99.90;;;;;;5055473;28;20047;-88
2022/11/21 04:23:33;;;;;;;2.22;1.35;;;-1.50;99.90;;;;;;5039406;28;20148;-87
2022/11/21 04:25:59;;;;;;;1.73;0.70;;;-1.60;99.90;;;;;;5055050;28;20503;-88
2022/11/21 04:28:25;;;;;;;0.63;0.63;;;-1.50;99.90;;;;;;5038813;28;20045;-88
2022/11/21 04:30:51;;;;;;;0.97;0.57;;;-1.60;99.90;;;;;;5046420;28;20079;-85
2022/11/21 04:33:17;;;;;;;1.33;1.17;;;-1.60;99.90;;;;;;5035832;28;20045;-88
2022/11/21 04:35:44;;;;;;;2.50;1.05;;;-1.60;99.90;;;;;;5001472;28;20049;-89
2022/11/21 04:38:10;;;;;;;2.30;1.45;;;-1.60;99.90;;;;;;5003536;28;20127;-88
2022/11/21 04:40:36;;;;;;;1.25;1.02;;;-1.60;99.90;;;;;;5019523;28;20392;-88
2022/11/21 04:43:02;;;;;;;0.93;0.93;;;-1.70;99.90;;;;;;5035029;28;20052;-88
2022/11/21 04:45:28;;;;;;;2.07;1.00;;;-1.10;99.90;;;;;;5019058;28;20564;-88
2022/11/21 04:47:54;;;;;;;1.88;1.08;;;-1.70;99.90;;;;;;5035026;28;20374;-86
2022/11/21 04:50:20;;;;;;;1.13;0.70;;;-1.70;99.90;;;;;;5052335;28;20045;-88
2022/11/21 04:52:51;;;;;;;1.42;0.82;;;-1.30;99.90;;;;;;5035378;28;20044;-88
2022/11/21 04:55:18;;;;;;;1.02;0.95;;;-1.80;99.90;;;;;;5034933;28;20460;-87
2022/11/21 04:57:44;;;;;;;0.75;0.75;;;-1.80;99.90;;;;;;5034822;28;20041;-87
2022/11/21 05:00:11;;;;;;;1.98;0.88;;;-1.80;99.90;;;;;;5035119;28;20080;-88
2022/11/21 05:02:37;;;;;;;1.20;1.10;;;-1.80;99.90;;;;;;5018658;28;20079;-88
2022/11/21 05:05:03;;;;;;;2.45;1.27;;;-1.70;99.90;;;;;;5035229;28;20131;-87
2022/11/21 05:07:29;;;;;;;1.23;0.63;;;-1.90;99.90;;;;;;5002797;28;20203;-88
2022/11/21 05:09:55;;;;;;;3.20;1.00;;;-1.00;99.90;;;;;;5019251;28;20045;-88
2022/11/21 05:15:09;;;;;;;0.80;0.50;;;-1.90;99.90;;;;;;4966420;28;20052;-88
2022/11/21 05:17:35;;;;;;;1.60;0.70;;;-1.50;99.90;;;;;;5034948;28;20048;-88
2022/11/21 05:20:00;;;;;;;0.87;0.87;;;-1.50;99.90;;;;;;5034252;28;20403;-87
2022/11/21 05:22:26;;;;;;;2.17;1.03;;;-1.90;99.90;;;;;;5002224;28;20112;-87
2022/11/21 05:24:52;;;;;;;0.60;0.60;;;-1.10;99.90;;;;;;5018827;28;20049;-87
2022/11/21 05:27:17;;;;;;;0.83;0.83;;;-0.50;99.90;;;;;;5050940;28;20051;-88
2022/11/21 05:29:43;;;;;;;1.05;0.85;;;-1.90;99.90;;;;;;5034768;28;20067;-87
2022/11/21 05:32:09;;;;;;;5.33;1.10;;;-2.00;99.90;;;;;;5019239;28;20139;-88
2022/11/21 05:34:35;;;;;;;0.93;0.93;;;-0.70;99.90;;;;;;5055436;28;20083;-88
2022/11/21 05:37:00;;;;;;;1.90;1.03;;;-2.00;99.90;;;;;;5021787;28;20503;-84
2022/11/21 05:39:26;;;;;;;0.10;0.10;;;-2.00;99.90;;;;;;5038525;28;20048;-88
2022/11/21 05:41:52;;;;;;;0.20;0.20;;;-1.60;99.90;;;;;;5038342;28;20483;-88
2022/11/21 05:44:18;;;;;;;2.27;1.10;;;-0.90;99.90;;;;;;5054244;28;20080;-87
2022/11/21 05:46:44;;;;;;;1.52;1.17;;;-1.30;99.90;;;;;;5054481;28;20041;-87
2022/11/21 05:49:10;;;;;;;4.00;0.52;;;-2.00;99.90;;;;;;5054110;28;20044;-87
2022/11/21 05:51:36;;;;;;;2.80;1.30;;;-2.00;99.90;;;;;;5054867;28;20055;-87
2022/11/21 05:54:02;;;;;;;2.70;1.17;;;-2.00;99.90;;;;;;5005059;28;20055;-85
2022/11/21 05:56:28;;;;;;;1.00;0.60;;;-2.00;99.90;;;;;;5036849;28;20045;-86
2022/11/21 05:58:54;;;;;;;1.83;0.90;;;-2.00;99.90;;;;;;5054088;28;20479;-88
2022/11/21 06:04:04;;;;;;;1.40;0.70;;;-1.70;99.90;;;;;;5053649;28;20056;-84
2022/11/21 06:06:30;;;;;;;1.77;0.87;;;-1.90;99.90;;;;;;5053526;28;20419;-88
2022/11/21 06:08:56;;;;;;;1.43;1.33;;;-1.90;99.90;;;;;;5038241;28;20045;-88
2022/11/21 06:11:21;;;;;;;1.17;0.70;;;-1.60;99.90;;;;;;5054334;28;20060;-86
2022/11/21 06:13:47;;;;;;;1.33;0.93;;;-1.90;99.90;;;;;;5054625;28;20041;-88
2022/11/21 06:16:18;;;;;;;2.53;1.13;;;-1.80;99.90;;;;;;5054023;28;20052;-87
2022/11/21 06:18:48;;;;;;;5.00;1.50;;;-1.80;99.90;;;;;;5054833;28;20499;-87
2022/11/21 06:21:23;;;;;;;2.05;1.15;;;-1.70;99.90;;;;;;5037450;28;20048;-87
2022/11/21 06:23:54;;;;;;;1.25;0.88;;;-1.70;99.90;;;;;;5054255;28;20134;-87
2022/11/21 06:26:22;;;;;;;1.77;1.60;;;-1.50;99.90;;;;;;5053722;28;20041;-87
2022/11/21 06:28:48;;;;;;;2.10;1.15;;;-1.70;99.90;;;;;;5054547;28;20079;-87
2022/11/21 06:31:17;;;;;;;1.17;1.02;;;-0.70;99.90;;;;;;5048950;28;20067;-88
2022/11/21 06:33:43;;;;;;;5.00;2.42;;;-1.70;99.90;;;;;;5034036;28;20061;-87
2022/11/21 06:36:12;;;;;;;0.45;0.45;;;-1.30;99.90;;;;;;5017211;28;20099;-85
2022/11/21 06:38:38;;;;;;;1.23;0.90;;;-1.60;99.90;;;;;;5034582;28;20045;-87
2022/11/21 06:41:11;;;;;;;0.28;0.28;;;-1.70;99.90;;;;;;5018074;28;20080;-88
2022/11/21 06:43:37;;;;;;;1.35;1.10;;;-1.70;99.90;;;;;;5034301;28;20041;-88
2022/11/21 06:46:03;;;;;;;0.53;0.53;;;-1.70;99.90;;;;;;5051245;28;20537;-87
2022/11/21 06:48:32;;;;;;;3.63;1.07;;;-1.00;99.90;;;;;;5033606;28;20045;-88
2022/11/21 06:51:03;;;;;;;1.23;1.13;;;-1.80;99.90;;;;;;5017704;28;20456;-86
2022/11/21 06:53:29;;;;;;;2.42;1.40;;;-1.80;99.90;;;;;;5033431;28;20045;-88
2022/11/21 06:55:58;;;;;;;2.73;1.53;;;-1.80;99.90;;;;;;5017950;28;20434;-88
2022/11/21 06:58:24;;;;;;;1.17;1.08;;;-1.90;99.90;;;;;;5036187;28;20053;-87
2022/11/21 07:00:50;;;;;;;1.87;1.53;;;-1.90;99.90;;;;;;5020314;28;20041;-88
2022/11/21 07:03:16;;;;;;;1.73;0.97;;;-0.90;99.90;;;;;;5036640;28;20098;-88
2022/11/21 07:05:41;;;;;;;0.90;0.90;;;-1.90;99.90;;;;;;5021034;28;20502;-89
2022/11/21 07:08:07;;;;;;;3.73;1.00;;;-2.00;99.90;;;;;;5020581;28;20049;-90
2022/11/21 07:10:32;;;;;;;2.60;1.70;;;-1.80;99.90;;;;;;5022810;28;20483;-89
2022/11/21 07:15:45;;;;;;;2.20;1.98;;;-1.50;99.90;;;;;;5037130;28;20095;-88
2022/11/21 07:18:11;;;;;;;1.15;0.73;;;-1.40;99.90;;;;;;5003741;28;20053;-88
2022/11/21 07:20:37;;;;;;;1.88;0.82;;;-1.60;99.90;;;;;;5003954;28;20110;-89
2022/11/21 07:23:03;;;;;;;2.20;2.10;;;-1.90;99.90;;;;;;5036974;28;20537;-94
2022/11/21 07:25:29;;;;;;;3.53;2.03;;;-1.90;99.90;;;;;;5020269;28;20119;-90
2022/11/21 07:27:59;;;;;;;1.40;0.85;;;-1.90;99.90;;;;;;5020333;28;20092;-90
2022/11/21 07:30:25;;;;;;;0.90;0.90;;;-1.00;99.90;;;;;;5053701;28;20127;-90
2022/11/21 07:33:03;;;;;;;1.58;0.60;;;-1.90;99.90;;;;;;5012198;28;20518;-92
2022/11/21 07:35:29;;;;;;;9.38;1.55;;;-1.80;99.90;;;;;;5037007;28;20196;-89
2022/11/21 07:37:54;;;;;;;5.67;2.17;;;-1.40;99.90;;;;;;5037115;28;20048;-89
2022/11/21 07:40:20;;;;;;;1.27;1.25;;;-0.40;99.90;;;;;;5036604;28;20051;-88
2022/11/21 07:42:46;;;;;;;3.70;1.23;;;-1.00;99.90;;;;;;5019933;28;20049;-89
2022/11/21 07:45:13;;;;;;;1.47;1.30;;;-1.80;99.90;;;;;;5004464;28;20195;-91
2022/11/21 07:47:39;;;;;;;1.27;1.17;;;-1.80;99.90;;;;;;5036896;28;20292;-93
2022/11/21 07:50:06;;;;;;;2.43;1.00;;;-0.60;99.90;;;;;;5020255;28;20051;-89
2022/11/21 07:52:32;;;;;;;1.27;0.80;;;-1.70;99.90;;;;;;5036567;28;20529;-91
2022/11/21 07:54:58;;;;;;;0.83;0.83;;;-0.50;99.90;;;;;;5036712;28;20088;-92
2022/11/21 07:57:23;;;;;;;4.60;1.30;;;-0.40;99.90;;;;;;5036284;28;20104;-92
2022/11/21 07:59:50;;;;;;;1.35;0.90;;;-1.60;99.90;;;;;;5019542;28;20044;-89
2022/11/21 08:02:20;;;;;;;1.88;0.52;;;-0.20;99.90;;;;;;5036272;28;20376;-89
2022/11/21 08:04:46;;;;;;;3.35;0.98;;;-1.50;99.90;;;;;;5020338;28;20045;-89
2022/11/21 08:07:13;;;;;;;1.60;0.90;;;-1.40;99.90;;;;;;5036305;28;20048;-90
2022/11/21 08:09:38;;;;;;;2.10;1.88;;;-0.90;99.90;;;;;;5034843;28;20057;-90
2022/11/21 08:12:04;;;;;;;0.93;0.70;;;-1.40;99.90;;;;;;5019882;28;20136;-87
2022/11/21 08:14:31;;;;;;;1.70;1.43;;;-1.20;99.90;;;;;;5019515;28;20132;-89
2022/11/21 08:16:57;;;;;;;1.40;0.75;;;-0.20;99.90;;;;;;5003446;28;20044;-90
2022/11/21 08:19:22;;;;;;;1.83;0.93;;;-1.10;99.90;;;;;;5019547;28;20506;-91
2022/11/21 08:21:48;;;;;;;1.40;1.10;;;-1.00;99.90;;;;;;5035622;28;20554;-92
2022/11/21 08:24:16;;;;;;;3.63;1.27;;;-1.00;99.90;;;;;;5035964;28;20538;-89
2022/11/21 08:26:42;;;;;;;2.40;1.23;;;-0.90;99.90;;;;;;5002774;28;20609;-88
2022/11/21 08:29:09;;;;;;;1.25;0.88;;;-0.90;99.90;;;;;;5019368;28;20064;-90
2022/11/21 08:31:39;;;;;;;2.67;0.90;;;-0.80;99.90;;;;;;5026154;28;20056;-88
2022/11/21 08:34:05;;;;;;;3.45;1.63;;;-0.60;99.90;;;;;;5039225;28;20048;-91
2022/11/21 08:36:30;;;;;;;3.17;1.00;;;-0.70;99.90;;;;;;5038893;28;20044;-91
2022/11/21 08:38:56;;;;;;;1.33;1.13;;;-0.70;99.90;;;;;;5055828;28;20438;-89
2022/11/21 08:44:22;;;;;;;2.63;1.27;;;-0.60;99.90;;;;;;5022348;28;20056;-96
2022/11/21 08:46:48;;;;;;;2.58;1.15;;;-0.60;99.90;;;;;;5021262;28;20889;-95
2022/11/21 08:49:14;;;;;;;0.57;0.57;;;-0.50;99.90;;;;;;5038353;28;20135;-89
2022/11/21 08:51:40;;;;;;;1.00;0.83;;;0.50;99.90;;;;;;5054580;28;20544;-87
2022/11/21 08:54:05;;;;;;;0.77;0.77;;;-0.30;99.90;;;;;;5038993;28;20045;-90
2022/11/21 08:56:31;;;;;;;0.97;0.83;;;1.10;99.90;;;;;;5054484;28;20079;-89
2022/11/21 08:58:57;;;;;;;0.77;0.60;;;1.20;99.90;;;;;;5037383;28;20459;-90
2022/11/21 09:01:22;;;;;;;1.73;1.17;;;0.00;99.90;;;;;;5037376;28;20445;-87
2022/11/21 09:03:48;;;;;;;1.40;1.30;;;0.00;99.90;;;;;;5020357;28;20095;-88
2022/11/21 09:06:14;;;;;;;1.80;1.10;;;0.10;99.90;;;;;;5054410;28;20513;-88
2022/11/21 09:08:40;;;;;;;2.07;1.23;;;0.10;99.90;;;;;;5021615;28;20055;-89
2022/11/21 09:11:08;;;;;;;2.23;0.80;;;0.10;99.90;;;;;;5054793;28;20044;-89
2022/11/21 09:13:34;;;;;;;1.45;1.17;;;0.30;99.90;;;;;;5037585;28;20037;-91
2022/11/21 09:18:45;;;;;;;0.80;0.80;;;0.10;99.90;;;;;;5054014;28;20131;-93
2022/11/21 09:21:15;;;;;;;1.30;1.20;;;0.10;99.90;;;;;;5021118;28;20135;-91
2022/11/21 09:23:41;;;;;;;3.08;1.95;;;0.90;99.90;;;;;;5019161;28;20399;-89
2022/11/21 09:26:07;;;;;;;3.80;1.63;;;0.10;99.90;;;;;;5037741;28;20487;-86
2022/11/21 09:28:34;;;;;;;2.53;1.13;;;1.20;99.90;;;;;;5052736;28;20048;-87
2022/11/21 09:31:02;;;;;;;4.07;1.55;;;1.20;99.90;;;;;;5053871;28;20072;-88
2022/11/21 09:33:27;;;;;;;5.90;2.08;;;1.50;99.90;;;;;;5037436;28;20048;-93
2022/11/21 09:35:53;;;;;;;2.10;1.33;;;1.20;99.90;;;;;;5054531;28;20399;-87
2022/11/21 09:38:19;;;;;;;1.27;0.97;;;1.50;99.90;;;;;;5037849;28;20056;-88
2022/11/21 09:40:47;;;;;;;2.38;0.73;;;0.10;99.90;;;;;;5037730;28;20140;-88
2022/11/21 09:43:22;;;;;;;3.17;1.92;;;1.10;99.90;;;;;;5051886;28;20056;-88
2022/11/21 09:45:49;;;;;;;1.40;0.73;;;0.10;99.90;;;;;;5053479;28;20052;-91
2022/11/21 09:48:26;;;;;;;3.00;1.17;;;1.50;99.90;;;;;;5037422;28;20049;-86
2022/11/21 09:50:56;;;;;;;;;;;0.10;99.90;;;;;;5038056;28;20284;-88
2022/11/21 09:53:26;;;;;;;1.23;0.90;;;0.10;99.90;;;;;;5033925;28;19921;-87
2022/11/21 09:56:00;;;;;;;6.45;1.38;;;0.40;99.90;;;;;;5037350;28;20088;-87
2022/11/21 09:58:38;;;;;;;2.30;0.50;;;0.10;99.90;;;;;;5054402;28;20045;-89
2022/11/21 10:01:04;;;;;;;4.55;1.00;;;0.10;99.90;;;;;;5037739;28;20052;-89
2022/11/21 10:03:37;;;;;;;2.60;1.83;;;1.30;99.90;;;;;;5034197;28;20041;-89
2022/11/21 10:06:26;;;;;;;4.75;1.23;;;1.40;99.90;;;;;;5046944;28;20480;-90
2022/11/21 10:09:11;;;;;;;1.50;1.40;;;0.10;99.90;;;;;;5038499;28;20161;-90
2022/11/21 10:12:35;;;;;;;0.90;0.77;;;0.20;99.90;;;;;;5035065;28;20079;-89
2022/11/21 10:14:33;;;;;;;3.22;1.23;;;1.20;99.90;;;;;;5059804;28;20049;-88
2022/11/21 10:17:36;;;;;;;4.75;1.80;;;0.20;99.90;;;;;;5056463;28;20052;-91
2022/11/21 10:20:33;;;;;;;1.20;0.88;;;1.50;99.90;;;;;;5038352;28;20099;-89
2022/11/21 10:23:16;;;;;;;2.05;1.27;;;0.30;99.90;;;;;;5037230;28;20083;-88
2022/11/21 10:25:54;;;;;;;0.73;0.73;;;0.40;99.90;;;;;;5054233;28;20106;-86
2022/11/21 10:28:37;;;;;;;4.50;1.17;;;0.40;99.90;;;;;;5037405;28;20052;-87
2022/11/21 10:31:07;;;;;;;3.55;2.00;;;0.40;99.90;;;;;;5038507;28;20398;-85
2022/11/21 10:33:39;;;;;;;1.00;0.80;;;0.50;99.90;;;;;;5041523;28;20059;-83
2022/11/21 10:36:10;;;;;;;2.03;0.90;;;0.50;99.90;;;;;;5044676;28;20040;-88
2022/11/21 10:38:42;;;;;;;1.55;0.95;;;0.60;99.90;;;;;;5058225;28;20521;-87
2022/11/21 10:41:23;;;;;;;3.97;1.08;;;1.60;99.90;;;;;;5037640;28;20076;-86
2022/11/21 10:46:39;;;;;;;1.27;1.10;;;0.70;99.90;;;;;;5057650;28;20118;-84
2022/11/21 10:49:10;;;;;;;0.97;0.97;;;0.80;99.90;;;;;;5056788;28;20052;-86
2022/11/21 10:51:44;;;;;;;2.97;1.17;;;2.20;99.90;;;;;;5040364;28;20281;-86
2022/11/21 10:57:04;;;;;;;2.08;1.63;;;1.10;99.90;;;;;;5056922;28;20079;-86
2022/11/21 10:59:30;;;;;;;2.50;0.85;;;1.90;99.90;;;;;;5057534;28;20088;-87
2022/11/21 11:02:18;;;;;;;1.03;0.93;;;1.40;99.90;;;;;;5040445;28;20481;-86
2022/11/21 11:04:44;;;;;;;1.33;0.88;;;1.60;99.90;;;;;;5024713;28;20075;-93
2022/11/21 11:07:19;;;;;;;1.63;0.60;;;1.90;99.90;;;;;;5029144;28;20048;-86
2022/11/21 11:09:46;;;;;;;3.92;1.35;;;2.50;99.90;;;;;;5056779;28;20513;-85
2022/11/21 11:15:24;;;;;;;1.08;0.40;;;2.30;99.90;;;;;;5056905;28;20052;-84
2022/11/21 11:17:51;;;;;;;;;;;2.30;99.90;;;;;;5057161;28;20052;-85
2022/11/21 11:20:39;;;;;;;3.28;0.90;;;2.30;99.90;;;;;;5040649;28;19920;-86
2022/11/21 11:23:19;;;;;;;3.40;1.15;;;2.30;99.90;;;;;;5056291;28;20106;-87
2022/11/21 11:25:55;;;;;;;1.77;0.88;;;2.30;99.90;;;;;;5056271;28;20498;-85
2022/11/21 11:28:23;;;;;;;2.60;1.17;;;2.40;99.90;;;;;;5075048;28;20137;-86
2022/11/21 11:30:50;;;;;;;5.93;2.05;;;2.40;99.90;;;;;;5056627;28;20063;-87
2022/11/21 11:33:33;;;;;;;1.90;1.23;;;2.50;99.90;;;;;;5020805;28;20080;-87
2022/11/21 11:36:24;;;;;;;2.67;0.82;;;2.30;99.90;;;;;;5049282;28;20127;-86
2022/11/21 11:38:58;;;;;;;0.80;0.60;;;2.30;99.90;;;;;;5041872;28;20086;-86
2022/11/21 11:48:08;;;;;;;1.85;1.25;;;2.30;99.90;;;;;;5056721;28;20051;-91
2022/11/21 11:50:43;;;;;;;2.88;1.15;;;2.30;99.90;;;;;;5022487;28;20106;-87
2022/11/21 11:53:29;;;;;;;1.45;0.93;;;2.30;99.90;;;;;;5056405;28;20044;-87
2022/11/21 11:56:21;;;;;;;1.40;1.13;;;2.30;99.90;;;;;;5056966;28;20044;-87
2022/11/21 11:58:59;;;;;;;0.93;0.65;;;2.30;99.90;;;;;;5040419;28;20048;-89
2022/11/21 12:01:36;;;;;;;1.05;0.80;;;3.50;99.90;;;;;;5057120;28;20063;-89
2022/11/21 12:04:10;;;;;;;2.65;0.80;;;2.30;99.90;;;;;;5036856;28;20407;-89
2022/11/21 12:06:45;;;;;;;2.33;1.15;;;2.80;99.90;;;;;;5056955;28;20412;-89
2022/11/21 12:09:28;;;;;;;1.02;0.82;;;2.60;99.90;;;;;;5056501;28;20139;-89
2022/11/21 12:12:15;;;;;;;2.58;0.68;;;2.30;99.90;;;;;;5056373;28;20106;-88
2022/11/21 12:18:07;;;;;;;2.40;0.93;;;2.30;99.90;;;;;;5056136;28;20059;-89
2022/11/21 12:20:57;;;;;;;3.40;0.80;;;2.30;99.90;;;;;;5036773;28;20056;-89
2022/11/21 12:23:28;;;;;;;1.65;1.02;;;2.30;99.90;;;;;;5055974;28;20135;-87
2022/11/21 12:26:09;;;;;;;0.50;0.50;;;2.30;99.90;;;;;;5039200;28;20059;-88
2022/11/21 12:29:05;;;;;;;1.40;0.75;;;2.30;99.90;;;;;;5036357;28;20541;-90
2022/11/21 12:31:45;;;;;;;1.98;0.80;;;2.40;99.90;;;;;;5038860;28;20402;-90
2022/11/21 12:34:42;;;;;;;1.58;0.82;;;2.40;99.90;;;;;;5055956;28;20052;-90
2022/11/21 12:37:46;;;;;;;3.33;1.85;;;2.40;99.90;;;;;;5039334;28;20045;-90
2022/11/21 12:40:40;;;;;;;1.27;0.63;;;2.40;99.90;;;;;;5008871;28;20055;-90
2022/11/21 12:43:38;;;;;;;3.60;1.95;;;2.40;99.90;;;;;;4993723;28;20076;-90
2022/11/21 12:46:38;;;;;;;2.50;0.95;;;2.50;99.90;;;;;;5019482;28;20053;-90
2022/11/21 12:55:08;;;;;;;0.75;0.32;;;2.60;99.90;;;;;;5056178;28;20441;-90
2022/11/21 12:57:48;;;;;;;0.90;0.68;;;2.50;99.90;;;;;;5056057;28;20044;-90
2022/11/21 13:00:30;;;;;;;1.52;0.75;;;2.50;99.90;;;;;;5055675;28;20049;-90
2022/11/21 13:03:12;;;;;;;0.65;0.65;;;2.50;99.90;;;;;;5055769;28;20372;-90
2022/11/21 13:05:45;;;;;;;1.15;0.65;;;3.50;99.90;;;;;;5055810;28;20049;-90
2022/11/21 13:08:16;;;;;;;0.98;0.57;;;3.80;99.90;;;;;;5035500;28;20400;-90
2022/11/21 13:14:12;;;;;;;3.13;1.08;;;2.60;99.90;;;;;;5055568;28;20045;-90
2022/11/21 13:16:45;;;;;;;1.40;0.55;;;3.70;99.90;;;;;;5072344;28;20087;-90
2022/11/21 13:19:41;;;;;;;2.17;0.85;;;2.80;99.90;;;;;;5035134;28;20056;-90
2022/11/21 13:22:36;;;;;;;2.30;1.27;;;2.60;99.90;;;;;;5038577;28;20099;-90
2022/11/21 13:25:08;;;;;;;1.45;0.70;;;2.60;99.90;;;;;;5054680;28;20563;-89
2022/11/21 13:27:35;;;;;;;3.55;2.13;;;2.80;99.90;;;;;;5055508;28;20049;-90
2022/11/21 13:30:10;;;;;;;;;;;3.20;99.90;;;;;;5055251;28;20049;-87
2022/11/21 13:32:45;;;;;;;3.25;0.80;;;2.60;99.90;;;;;;5054961;28;19966;-90
2022/11/21 13:35:13;;;;;;;2.33;0.60;;;2.70;99.90;;;;;;5038085;28;20045;-90
2022/11/21 13:37:48;;;;;;;0.85;0.60;;;2.70;99.90;;;;;;5055274;28;20048;-90
2022/11/21 13:40:26;;;;;;;1.13;0.70;;;2.70;99.90;;;;;;5055134;28;20052;-90
2022/11/21 13:43:08;;;;;;;0.57;0.57;;;3.80;99.90;;;;;;5055027;28;20048;-90
2022/11/21 13:45:42;;;;;;;1.55;0.88;;;3.10;99.90;;;;;;5039036;28;20070;-90
2022/11/21 13:48:20;;;;;;;1.20;1.00;;;2.70;99.90;;;;;;5034937;28;20135;-90
2022/11/21 13:50:57;;;;;;;1.63;1.13;;;2.70;99.90;;;;;;5055162;28;20131;-90